createdAt,value
2022-10-09T00:01:31.864Z,74.24
2022-10-09T00:04:00.936Z,73.65
2022-10-09T00:06:31.233Z,73.56
2022-10-09T00:09:03.648Z,73.40
2022-10-09T00:11:34.171Z,73.57
2022-10-09T00:14:03.917Z,73.91
2022-10-09T00:16:32.579Z,73.53
2022-10-09T00:19:01.313Z,73.16
2022-10-09T00:21:32.071Z,72.36
2022-10-09T00:24:02.770Z,72.36
2022-10-09T00:26:32.264Z,72.60
2022-10-09T00:29:01.780Z,72.31
2022-10-09T00:31:30.564Z,71.85
2022-10-09T00:33:58.954Z,71.86
2022-10-09T00:36:27.959Z,71.86
2022-10-09T00:38:57.012Z,72.20
2022-10-09T00:41:28.431Z,72.58
2022-10-09T00:43:59.859Z,72.64
2022-10-09T00:46:36.709Z,72.76
2022-10-09T00:49:26.519Z,72.59
2022-10-09T00:51:57.874Z,72.66
2022-10-09T01:03:59.236Z,72.54
2022-10-09T01:15:59.235Z,73.16
2022-10-09T01:18:37.097Z,73.53
2022-10-09T01:21:12.175Z,74.36
2022-10-09T01:24:06.995Z,74.55
2022-10-09T01:26:59.904Z,73.62
2022-10-09T01:29:50.900Z,73.42
2022-10-09T01:32:41.245Z,73.12
2022-10-09T01:35:44.287Z,73.28
2022-10-09T01:38:29.693Z,73.53
2022-10-09T01:40:58.349Z,73.17
2022-10-09T02:50:59.122Z,73.48
2022-10-09T02:53:28.178Z,74.17
2022-10-09T02:55:56.943Z,74.40
2022-10-09T02:58:25.565Z,74.22
2022-10-09T03:00:54.830Z,74.15
2022-10-09T03:03:23.663Z,73.89
2022-10-09T03:06:01.523Z,73.96
2022-10-09T03:08:31.025Z,74.83
2022-10-09T03:10:59.616Z,74.39
2022-10-09T03:13:28.197Z,74.11
2022-10-09T03:16:02.989Z,73.62
2022-10-09T03:18:30.714Z,73.29
2022-10-09T03:20:59.876Z,73.03
2022-10-09T03:23:28.599Z,72.90
2022-10-09T03:25:57.916Z,72.82
2022-10-09T03:28:27.115Z,73.14
2022-10-09T03:30:56.373Z,72.98
2022-10-09T03:33:25.299Z,72.62
2022-10-09T03:35:53.680Z,72.50
2022-10-09T03:38:22.080Z,72.74
2022-10-09T03:40:51.013Z,72.56
2022-10-09T03:43:19.557Z,72.56
2022-10-09T03:45:47.991Z,73.01
2022-10-09T03:48:16.403Z,72.88
2022-10-09T03:55:12.900Z,72.93
2022-10-09T03:57:42.007Z,72.68
2022-10-09T04:00:13.588Z,73.03
2022-10-09T04:02:42.086Z,72.98
2022-10-09T04:05:47.219Z,73.11
2022-10-09T04:09:29.410Z,73.48
2022-10-09T04:11:57.931Z,73.35
2022-10-09T04:14:29.447Z,73.07
2022-10-09T04:50:22.362Z,72.12
2022-10-09T04:54:02.390Z,72.06
2022-10-09T04:56:38.026Z,72.30
2022-10-09T05:03:32.599Z,72.65
2022-10-09T05:06:02.736Z,72.49
2022-10-09T05:08:32.807Z,73.16
2022-10-09T05:11:02.618Z,72.90
2022-10-09T05:13:32.292Z,73.20
2022-10-09T05:16:04.238Z,73.91
2022-10-09T05:18:33.644Z,74.24
2022-10-09T05:21:05.478Z,74.00
2022-10-09T05:23:36.341Z,74.29
2022-10-09T05:26:07.342Z,74.33
2022-10-09T05:28:38.233Z,74.28
2022-10-09T05:31:09.782Z,74.67
2022-10-09T05:33:38.246Z,74.74
2022-10-09T05:36:08.435Z,74.63
2022-10-09T05:38:37.074Z,74.56
2022-10-09T05:41:10.509Z,74.51
2022-10-09T05:43:40.923Z,74.64
2022-10-09T05:46:12.152Z,74.65
2022-10-09T05:48:42.707Z,74.27
2022-10-09T05:51:14.645Z,74.45
2022-10-09T05:53:46.339Z,74.39
2022-10-09T05:56:18.256Z,74.60
2022-10-09T05:58:50.733Z,74.74
2022-10-09T06:01:19.760Z,75.08
2022-10-09T06:03:50.441Z,75.52
2022-10-09T06:06:20.740Z,75.79
2022-10-09T06:08:49.750Z,75.61
2022-10-09T06:11:20.031Z,75.72
2022-10-09T06:13:49.311Z,76.13
2022-10-09T06:16:18.601Z,76.12
2022-10-09T06:18:49.268Z,75.94
2022-10-09T06:21:18.492Z,75.62
2022-10-09T06:23:50.710Z,75.58
2022-10-09T06:26:20.697Z,75.99
2022-10-09T06:28:49.869Z,76.62
2022-10-09T06:31:20.873Z,75.94
2022-10-09T06:33:50.745Z,76.29
2022-10-09T06:36:21.337Z,76.32
2022-10-09T06:38:50.831Z,76.25
2022-10-09T06:41:21.744Z,76.52
2022-10-09T06:43:51.990Z,75.99
2022-10-09T06:46:22.341Z,75.59
2022-10-09T06:48:50.885Z,75.77
2022-10-09T06:51:21.812Z,75.72
2022-10-09T06:53:52.542Z,75.68
2022-10-09T06:56:24.511Z,75.92
2022-10-09T06:58:53.931Z,75.61
2022-10-09T07:03:02.100Z,76.38
2022-10-09T07:05:34.240Z,75.90
2022-10-09T07:08:06.134Z,76.31
2022-10-09T07:10:38.114Z,76.57
2022-10-09T07:13:10.186Z,76.86
2022-10-09T07:15:48.274Z,77.06
2022-10-09T07:18:20.219Z,77.52
2022-10-09T07:20:52.027Z,77.23
2022-10-09T07:23:24.305Z,77.29
2022-10-09T07:25:56.599Z,77.20
2022-10-09T07:28:30.725Z,77.18
2022-10-09T07:31:05.144Z,77.95
2022-10-09T07:33:37.534Z,77.59
2022-10-09T07:36:10.720Z,77.53
2022-10-09T07:38:42.821Z,77.48
2022-10-09T07:41:15.490Z,77.14
2022-10-09T07:43:47.547Z,77.32
2022-10-09T07:46:21.892Z,77.40
2022-10-09T07:48:54.227Z,77.15
2022-10-09T07:51:28.996Z,76.89
2022-10-09T07:54:02.488Z,76.99
2022-10-09T07:56:38.084Z,77.16
2022-10-09T07:59:14.248Z,77.05
2022-10-09T08:01:50.968Z,76.64
2022-10-09T08:04:24.594Z,76.00
2022-10-09T08:06:58.370Z,75.62
2022-10-09T08:09:30.450Z,75.79
2022-10-09T08:12:19.973Z,76.35
2022-10-09T08:14:52.019Z,76.04
2022-10-09T08:17:23.964Z,76.26
2022-10-09T08:19:58.179Z,76.19
2022-10-09T08:22:38.364Z,75.64
2022-10-09T08:25:11.595Z,75.22
2022-10-09T08:27:43.774Z,75.35
2022-10-09T08:30:16.130Z,74.99
2022-10-09T08:33:22.483Z,74.27
2022-10-09T08:36:17.545Z,74.32
2022-10-09T08:38:49.662Z,74.28
2022-10-09T08:41:34.952Z,73.96
2022-10-09T08:44:07.364Z,73.78
2022-10-09T08:46:54.509Z,73.73
2022-10-09T08:57:35.700Z,72.98
2022-10-09T09:00:20.347Z,72.83
2022-10-09T09:03:21.541Z,73.05
2022-10-09T09:06:01.721Z,72.23
2022-10-09T09:08:44.908Z,71.96
2022-10-09T09:11:23.647Z,72.09
2022-10-09T09:14:04.395Z,71.51
2022-10-09T09:16:45.474Z,70.84
2022-10-09T09:19:38.438Z,70.64
2022-10-09T09:22:14.371Z,70.86
2022-10-09T09:24:52.110Z,69.49
2022-10-09T09:27:28.642Z,69.26
2022-10-09T09:30:14.675Z,69.59
2022-10-09T09:32:56.557Z,69.27
2022-10-09T09:35:35.329Z,68.98
2022-10-09T09:38:07.280Z,68.97
2022-10-09T09:40:42.231Z,67.63
2022-10-09T09:43:18.865Z,66.57
2022-10-09T09:45:53.366Z,66.81
2022-10-09T09:48:35.838Z,66.42
2022-10-09T09:51:28.034Z,64.05
2022-10-09T09:54:04.268Z,64.49
2022-10-09T09:57:06.847Z,63.98
2022-10-09T09:59:37.149Z,63.53
2022-10-09T10:02:16.136Z,63.03
2022-10-09T10:04:54.414Z,62.63
2022-10-09T10:07:37.106Z,61.91
2022-10-09T10:10:22.480Z,61.48
2022-10-09T10:13:01.574Z,61.56
2022-10-09T10:15:35.748Z,60.87
2022-10-09T10:18:13.994Z,61.27
2022-10-09T10:20:48.450Z,60.47
2022-10-09T10:23:33.206Z,59.05
2022-10-09T10:26:11.002Z,59.53
2022-10-09T10:28:49.951Z,58.41
2022-10-09T10:31:36.488Z,57.90
2022-10-09T10:34:15.392Z,56.80
2022-10-09T10:36:49.292Z,57.39
2022-10-09T10:39:28.067Z,58.53
2022-10-09T10:42:02.638Z,56.89
2022-10-09T10:44:44.396Z,56.58
2022-10-09T10:47:22.904Z,56.55
2022-10-09T10:49:55.097Z,57.63
2022-10-09T10:52:44.386Z,56.94
2022-10-09T10:55:28.216Z,55.55
2022-10-09T10:58:09.175Z,55.10
2022-10-09T11:00:48.150Z,56.19
2022-10-09T11:03:39.800Z,55.14
2022-10-09T11:06:23.438Z,53.59
2022-10-09T11:09:12.922Z,52.68
2022-10-09T11:11:51.241Z,52.88
2022-10-09T11:14:39.554Z,52.53
2022-10-09T11:17:26.592Z,53.06
2022-10-09T11:20:17.936Z,53.07
2022-10-09T11:23:02.847Z,53.06
2022-10-09T11:25:41.301Z,52.84
2022-10-09T11:28:16.803Z,53.08
2022-10-09T11:30:54.111Z,54.24
2022-10-09T11:33:43.425Z,55.51
2022-10-09T11:36:20.079Z,55.42
2022-10-09T11:38:59.546Z,55.99
2022-10-09T11:41:33.713Z,55.19
2022-10-09T11:44:19.661Z,54.12
2022-10-09T11:47:01.538Z,54.40
2022-10-09T11:49:38.645Z,54.09
2022-10-09T11:52:20.321Z,53.67
2022-10-09T11:54:52.925Z,53.56
2022-10-09T11:57:31.073Z,53.27
2022-10-09T12:00:10.033Z,53.33
2022-10-09T12:02:44.033Z,54.01
2022-10-09T12:05:31.301Z,53.32
2022-10-09T12:08:15.387Z,53.90
2022-10-09T12:10:54.567Z,54.48
2022-10-09T12:13:46.106Z,54.82
2022-10-09T12:16:47.157Z,54.15
2022-10-09T12:19:23.449Z,54.57
2022-10-09T12:22:01.970Z,53.76
2022-10-09T12:24:39.444Z,52.22
2022-10-09T12:27:20.195Z,52.07
2022-10-09T12:29:55.747Z,53.52
2022-10-09T12:32:32.069Z,53.46
2022-10-09T12:35:13.563Z,52.39
2022-10-09T12:37:45.495Z,52.55
2022-10-09T12:40:23.164Z,53.26
2022-10-09T12:42:57.119Z,53.23
2022-10-09T12:45:32.032Z,52.03
2022-10-09T12:48:13.041Z,52.16
2022-10-09T12:50:45.755Z,51.97
2022-10-09T12:53:19.142Z,52.44
2022-10-09T12:55:53.092Z,52.63
2022-10-09T12:58:27.812Z,52.61
2022-10-09T13:01:03.471Z,52.28
2022-10-09T13:03:39.660Z,52.73
2022-10-09T13:06:19.041Z,52.48
2022-10-09T13:08:55.620Z,51.65
2022-10-09T13:11:34.316Z,50.89
2022-10-09T13:14:07.419Z,50.41
2022-10-09T13:16:44.439Z,50.07
2022-10-09T13:19:27.647Z,49.46
2022-10-09T13:22:20.494Z,48.55
2022-10-09T13:24:55.610Z,48.75
2022-10-09T13:27:30.503Z,48.68
2022-10-09T13:30:03.364Z,48.79
2022-10-09T13:32:35.292Z,49.08
2022-10-09T13:35:08.125Z,48.56
2022-10-09T13:37:40.285Z,48.11
2022-10-09T13:40:18.779Z,47.76
2022-10-09T13:42:55.197Z,47.53
2022-10-09T13:45:27.457Z,47.81
2022-10-09T13:47:59.646Z,47.83
2022-10-09T13:50:32.006Z,47.06
2022-10-09T13:53:04.103Z,46.80
2022-10-09T13:55:36.301Z,46.73
2022-10-09T13:58:08.190Z,46.73
2022-10-09T14:00:40.121Z,47.33
2022-10-09T14:03:12.306Z,47.21
2022-10-09T14:05:44.448Z,47.18
2022-10-09T14:08:16.390Z,47.35
2022-10-09T14:10:48.319Z,46.96
2022-10-09T14:13:20.743Z,46.75
2022-10-09T14:15:53.364Z,47.52
2022-10-09T14:18:26.125Z,47.34
2022-10-09T14:20:58.053Z,52.32
2022-10-09T14:23:29.884Z,49.30
2022-10-09T14:26:06.272Z,48.27
2022-10-09T14:28:38.191Z,48.30
2022-10-09T14:31:10.407Z,48.70
2022-10-09T14:33:42.497Z,49.32
2022-10-09T14:36:18.704Z,49.74
2022-10-09T14:38:51.284Z,49.47
2022-10-09T14:41:23.508Z,49.88
2022-10-09T14:43:59.424Z,49.26
2022-10-09T14:46:34.118Z,49.56
2022-10-09T14:49:08.232Z,50.31
2022-10-09T14:51:41.980Z,49.66
2022-10-09T14:54:14.981Z,51.89
2022-10-09T14:56:46.875Z,51.15
2022-10-09T14:59:18.948Z,50.67
2022-10-09T15:01:50.868Z,50.97
2022-10-09T15:04:22.697Z,51.57
2022-10-09T15:06:54.879Z,50.87
2022-10-09T15:09:27.238Z,51.34
2022-10-09T15:11:59.326Z,52.36
2022-10-09T15:14:30.992Z,53.93
2022-10-09T15:17:03.101Z,54.54
2022-10-09T15:19:35.930Z,54.30
2022-10-09T15:22:08.026Z,55.42
2022-10-09T15:24:40.004Z,55.75
2022-10-09T15:27:11.997Z,55.82
2022-10-09T15:29:43.923Z,55.97
2022-10-09T15:32:15.861Z,54.67
2022-10-09T15:34:48.100Z,54.97
2022-10-09T15:37:19.988Z,55.88
2022-10-09T15:39:52.062Z,56.32
2022-10-09T15:42:23.980Z,56.18
2022-10-09T15:44:55.839Z,56.19
2022-10-09T15:47:50.088Z,56.34
2022-10-09T15:50:20.641Z,56.29
2022-10-09T15:52:54.728Z,55.78
2022-10-09T15:55:26.726Z,57.02
2022-10-09T15:57:59.459Z,57.63
2022-10-09T16:00:31.367Z,56.88
2022-10-09T16:03:03.651Z,56.84
2022-10-09T16:05:40.307Z,57.29
2022-10-09T16:08:13.193Z,56.83
2022-10-09T16:10:48.974Z,57.10
2022-10-09T16:13:21.679Z,58.37
2022-10-09T16:15:54.323Z,58.59
2022-10-09T16:18:27.269Z,58.95
2022-10-09T16:21:06.749Z,58.83
2022-10-09T16:23:38.926Z,58.62
2022-10-09T16:26:11.496Z,58.24
2022-10-09T16:28:43.549Z,58.29
2022-10-09T16:31:22.084Z,58.54
2022-10-09T16:33:54.410Z,59.01
2022-10-09T16:36:26.933Z,59.45
2022-10-09T16:39:00.242Z,59.42
2022-10-09T16:41:38.371Z,59.06
2022-10-09T16:44:18.342Z,59.08
2022-10-09T16:46:50.234Z,59.42
2022-10-09T16:49:24.312Z,59.48
2022-10-09T16:52:09.168Z,59.52
2022-10-09T16:54:41.104Z,59.64
2022-10-09T17:02:40.566Z,60.13
2022-10-09T17:04:52.293Z,59.83
2022-10-09T17:05:20.373Z,60.42
2022-10-09T17:08:05.838Z,60.83
2022-10-09T17:10:43.745Z,61.14
2022-10-09T17:13:15.697Z,61.25
2022-10-09T17:15:47.840Z,61.21
2022-10-09T17:18:21.052Z,61.44
2022-10-09T17:20:53.050Z,61.60
2022-10-09T17:23:25.657Z,61.64
2022-10-09T17:25:58.295Z,61.64
2022-10-09T17:28:30.276Z,61.78
2022-10-09T17:31:05.552Z,62.04
2022-10-09T17:33:41.273Z,62.19
2022-10-09T17:36:14.649Z,62.17
2022-10-09T17:38:47.298Z,62.13
2022-10-09T17:41:21.463Z,61.87
2022-10-09T17:43:55.280Z,61.69
2022-10-09T17:46:28.700Z,61.72
2022-10-09T17:49:02.088Z,61.68
2022-10-09T17:51:36.250Z,61.96
2022-10-09T17:54:12.448Z,62.14
2022-10-09T17:56:45.107Z,62.11
2022-10-09T17:59:17.008Z,61.68
2022-10-09T18:01:49.096Z,61.48
2022-10-09T18:04:21.035Z,61.81
2022-10-09T18:06:53.010Z,61.99
2022-10-09T18:09:25.102Z,62.26
2022-10-09T18:11:57.254Z,62.07
2022-10-09T19:11:15.588Z,62.91
2022-10-09T19:38:41.876Z,63.79
2022-10-09T20:29:21.389Z,63.99
2022-10-09T20:32:20.662Z,64.17
2022-10-09T20:36:10.664Z,64.14
2022-10-09T20:41:33.199Z,64.32
2022-10-09T20:44:34.016Z,64.34
2022-10-09T20:47:13.528Z,64.35
2022-10-09T22:36:18.611Z,64.55
2022-10-09T22:38:48.128Z,64.52
2022-10-09T22:41:19.002Z,64.83
2022-10-09T22:43:49.701Z,65.17
2022-10-09T22:46:20.547Z,65.14
2022-10-09T22:48:49.396Z,65.32
2022-10-09T22:51:19.413Z,65.77
2022-10-09T22:53:49.253Z,66.03
2022-10-09T22:56:19.343Z,66.34
2022-10-09T22:58:49.331Z,66.49
2022-10-09T23:01:26.585Z,66.44
2022-10-09T23:03:55.258Z,66.34
2022-10-09T23:06:24.119Z,66.33
2022-10-09T23:08:52.992Z,66.14
2022-10-09T23:11:22.541Z,65.96
2022-10-09T23:13:55.073Z,65.90
2022-10-09T23:16:25.116Z,66.13
2022-10-09T23:18:54.160Z,66.00
2022-10-09T23:21:23.953Z,66.22
2022-10-09T23:23:53.047Z,66.38
2022-10-09T23:26:23.908Z,66.31
2022-10-09T23:28:54.086Z,66.51
2022-10-09T23:31:23.510Z,66.35
2022-10-09T23:33:52.126Z,66.27
2022-10-09T23:36:22.674Z,66.28
2022-10-09T23:38:51.522Z,66.32
2022-10-09T23:41:22.851Z,66.23
2022-10-09T23:43:51.711Z,66.16
2022-10-09T23:46:22.100Z,66.12
2022-10-09T23:48:51.581Z,66.14
2022-10-09T23:51:21.498Z,66.15
2022-10-09T23:53:50.362Z,66.15
2022-10-09T23:56:21.430Z,66.06
2022-10-09T23:58:50.381Z,65.86
